Time;durP1;ratioP1;P1;durP2;ratioP2;P2;SDS_P1;SDS_P2;PMS_P1;PMS_P2;Temp;Humidity;BMP_temperature;BMP_pressure;BME280_temperature;BME280_humidity;BME280_pressure;Samples;Min_cycle;Max_cycle;Signal;HPM_P1;HPM_P2
2021/12/03 00:00:10;;;;;;;17.20;13.02;;;;;;;1.52;89.80;97707.50;4963382;29;20031;-56
2021/12/03 00:02:56;;;;;;;20.52;13.75;;;;;;;1.64;89.55;97723.47;4952338;29;20062;-55
2021/12/03 00:05:42;;;;;;;22.35;14.13;;;;;;;1.65;89.68;97731.09;4945209;29;20039;-54
2021/12/03 00:08:28;;;;;;;18.55;12.32;;;;;;;1.69;89.44;97729.34;4949893;29;20031;-56
2021/12/03 00:11:14;;;;;;;18.70;12.98;;;;;;;1.48;89.58;97713.53;4956734;29;20070;-55
2021/12/03 00:14:01;;;;;;;17.90;12.65;;;;;;;1.61;89.65;97719.28;4962038;29;20030;-55
2021/12/03 00:16:46;;;;;;;19.05;11.95;;;;;;;1.60;89.59;97712.47;4959801;29;20098;-56
2021/12/03 00:19:32;;;;;;;15.73;11.95;;;;;;;1.55;89.75;97722.78;4961109;29;20019;-57
2021/12/03 00:22:18;;;;;;;16.50;11.77;;;;;;;1.58;90.07;97729.50;4962049;28;20343;-57
2021/12/03 00:25:04;;;;;;;17.15;12.10;;;;;;;1.63;89.98;97732.84;4960150;29;20023;-57
2021/12/03 00:27:50;;;;;;;17.05;11.80;;;;;;;1.65;89.57;97725.16;4958434;29;20023;-57
2021/12/03 00:30:37;;;;;;;16.13;11.80;;;;;;;1.62;89.90;97732.84;4962894;28;20031;-58
2021/12/03 00:33:23;;;;;;;16.23;11.07;;;;;;;1.67;89.70;97728.53;4961197;29;20058;-57
2021/12/03 00:36:10;;;;;;;13.88;10.43;;;;;;;1.63;90.10;97732.00;4955903;29;20220;-56
2021/12/03 00:38:59;;;;;;;15.27;10.90;;;;;;;1.67;89.73;97724.25;4960334;29;20035;-56
2021/12/03 00:41:48;;;;;;;15.90;11.30;;;;;;;1.71;90.06;97736.09;4959296;29;20284;-57
2021/12/03 00:44:34;;;;;;;15.05;11.35;;;;;;;1.76;89.71;97728.34;4957542;29;20041;-57
2021/12/03 00:47:20;;;;;;;15.40;11.05;;;;;;;1.70;89.82;97713.16;4962835;28;20035;-58
2021/12/03 00:50:09;;;;;;;18.08;11.98;;;;;;;1.44;90.00;97671.09;4945516;29;20082;-57
2021/12/03 00:52:55;;;;;;;13.88;10.05;;;;;;;1.81;90.00;97705.28;4963099;28;20023;-56
2021/12/03 00:55:41;;;;;;;15.23;10.77;;;;;;;1.86;89.83;97714.56;4961750;29;20054;-56
2021/12/03 00:58:27;;;;;;;14.90;10.90;;;;;;;1.89;89.20;97728.97;4944425;29;20039;-57
2021/12/03 01:01:14;;;;;;;15.80;10.95;;;;;;;1.87;89.84;97721.34;4946868;28;20039;-57
2021/12/03 01:04:00;;;;;;;13.68;10.05;;;;;;;1.86;89.96;97739.25;4963569;28;20189;-57
2021/12/03 01:06:47;;;;;;;14.43;10.02;;;;;;;1.74;89.92;97719.91;4945751;29;20023;-56
2021/12/03 01:09:33;;;;;;;13.95;10.25;;;;;;;1.88;89.82;97717.94;4962077;29;20035;-56
2021/12/03 01:12:19;;;;;;;12.45;9.40;;;;;;;1.98;89.58;97727.94;4960919;29;20450;-56
2021/12/03 01:15:08;;;;;;;14.68;9.75;;;;;;;1.86;89.37;97718.81;4962113;28;20022;-56
2021/12/03 01:17:56;;;;;;;14.35;10.20;;;;;;;1.65;89.12;97691.97;4960132;29;20220;-55
2021/12/03 01:20:44;;;;;;;13.75;10.50;;;;;;;1.94;89.25;97723.78;4960982;29;20031;-55
2021/12/03 01:23:31;;;;;;;13.50;10.13;;;;;;;1.90;89.14;97738.31;4962736;28;20023;-56
2021/12/03 01:26:19;;;;;;;13.18;10.45;;;;;;;2.03;88.86;97741.50;4960053;29;20065;-57
2021/12/03 01:29:05;;;;;;;14.88;10.18;;;;;;;2.07;88.93;97743.13;4960440;29;20110;-57
2021/12/03 01:31:53;;;;;;;13.52;10.13;;;;;;;2.14;88.35;97739.56;4960123;29;20102;-56
2021/12/03 01:34:39;;;;;;;11.68;9.35;;;;;;;2.16;88.48;97750.59;4955787;28;20036;-56
2021/12/03 01:37:25;;;;;;;12.40;9.82;;;;;;;2.07;88.42;97759.25;4954272;29;20027;-58
2021/12/03 01:40:19;;;;;;;13.05;10.50;;;;;;;2.14;88.80;97767.66;4961141;29;20110;-57
2021/12/03 01:43:07;;;;;;;12.07;9.38;;;;;;;2.11;88.18;97743.88;4961960;29;20046;-58
2021/12/03 01:45:57;;;;;;;15.88;10.57;;;;;;;2.09;88.38;97745.63;4961650;29;20025;-56
2021/12/03 01:48:42;;;;;;;12.77;9.63;;;;;;;2.25;87.92;97757.22;4961168;29;20051;-56
2021/12/03 01:51:28;;;;;;;12.75;9.80;;;;;;;2.17;87.93;97748.91;4959152;29;20031;-57
2021/12/03 01:54:14;;;;;;;12.02;9.63;;;;;;;2.18;87.95;97759.06;4949142;29;20233;-56
2021/12/03 01:57:00;;;;;;;14.15;9.93;;;;;;;2.14;87.72;97767.66;4952718;29;20023;-57
2021/12/03 01:59:46;;;;;;;14.02;10.00;;;;;;;2.18;88.00;97771.84;4959589;29;20031;-57
2021/12/03 02:02:32;;;;;;;13.00;9.57;;;;;;;2.25;87.42;97787.88;4961638;29;20027;-57
2021/12/03 02:05:19;;;;;;;14.43;10.15;;;;;;;2.34;87.36;97786.88;4960003;29;20558;-56
2021/12/03 02:08:05;;;;;;;11.73;9.15;;;;;;;2.26;87.16;97783.63;4958991;29;20055;-56
2021/12/03 02:10:51;;;;;;;14.85;10.50;;;;;;;2.27;87.49;97775.06;4960905;29;20252;-58
2021/12/03 02:13:38;;;;;;;14.82;10.98;;;;;;;2.30;87.48;97785.25;4946031;28;20027;-56
2021/12/03 02:16:25;;;;;;;13.48;10.30;;;;;;;2.30;86.87;97787.81;4961114;29;20030;-56
2021/12/03 02:19:12;;;;;;;12.38;10.50;;;;;;;2.32;86.98;97780.94;4942572;29;20349;-56
2021/12/03 02:21:58;;;;;;;13.98;9.23;;;;;;;2.30;86.63;97788.63;4961854;29;20035;-57
2021/12/03 02:24:44;;;;;;;12.50;9.77;;;;;;;2.30;86.77;97785.25;4959858;29;20043;-58
2021/12/03 02:27:30;;;;;;;14.25;10.20;;;;;;;2.29;87.07;97796.31;4962861;28;20387;-56
2021/12/03 02:30:17;;;;;;;14.05;10.18;;;;;;;2.34;86.65;97797.09;4964559;29;20110;-56
2021/12/03 02:33:04;;;;;;;13.43;10.00;;;;;;;2.40;86.58;97808.00;4948523;29;20317;-57
2021/12/03 02:35:50;;;;;;;11.68;9.65;;;;;;;2.39;86.25;97798.69;4961676;29;20079;-57
2021/12/03 02:38:36;;;;;;;14.63;10.38;;;;;;;2.41;86.50;97804.59;4950024;29;20284;-57
2021/12/03 02:41:22;;;;;;;12.50;9.88;;;;;;;2.51;85.75;97810.38;4953090;29;20090;-57
2021/12/03 02:44:08;;;;;;;12.15;9.00;;;;;;;2.55;85.64;97801.78;4963054;29;20050;-57
2021/12/03 02:46:55;;;;;;;15.88;10.07;;;;;;;2.53;85.33;97800.94;4949516;29;20058;-56
2021/12/03 02:49:42;;;;;;;12.10;9.20;;;;;;;2.56;85.29;97803.44;4961519;28;20032;-56
2021/12/03 02:52:28;;;;;;;13.55;9.43;;;;;;;2.47;84.92;97788.31;4950966;28;20039;-55
2021/12/03 02:55:15;;;;;;;12.73;9.00;;;;;;;2.63;85.39;97808.44;4952218;29;20027;-56
2021/12/03 02:58:02;;;;;;;13.13;9.73;;;;;;;2.50;85.32;97798.47;4963284;29;20030;-56
2021/12/03 03:00:50;;;;;;;12.07;9.35;;;;;;;2.18;85.04;97743.75;4963776;29;20031;-56
2021/12/03 03:03:36;;;;;;;11.85;9.25;;;;;;;2.61;85.15;97803.38;4962910;29;20023;-56
2021/12/03 03:06:22;;;;;;;14.40;9.75;;;;;;;2.58;84.95;97809.38;4963660;29;20087;-56
2021/12/03 03:09:11;;;;;;;13.43;9.68;;;;;;;2.59;85.25;97808.50;4962647;29;20055;-56
2021/12/03 03:11:58;;;;;;;11.85;9.13;;;;;;;2.68;84.73;97820.25;4961759;29;20034;-57
2021/12/03 03:14:51;;;;;;;14.48;10.10;;;;;;;2.32;85.05;97769.00;4955271;29;20034;-56
2021/12/03 03:17:38;;;;;;;12.73;9.85;;;;;;;2.53;85.22;97811.16;4958259;28;20212;-57
2021/12/03 03:20:24;;;;;;;14.18;11.02;;;;;;;2.58;84.97;97809.38;4957233;29;20027;-57
2021/12/03 03:23:12;;;;;;;13.98;10.13;;;;;;;2.49;84.68;97807.00;4957767;29;20336;-58
2021/12/03 03:25:58;;;;;;;16.65;10.68;;;;;;;2.65;85.10;97824.56;4963002;29;20031;-58
2021/12/03 03:28:45;;;;;;;14.52;9.70;;;;;;;2.67;85.19;97826.25;4963422;29;20031;-57
2021/12/03 03:31:33;;;;;;;13.45;10.07;;;;;;;2.61;85.30;97828.06;4963345;29;20034;-56
2021/12/03 03:34:19;;;;;;;14.65;10.75;;;;;;;2.65;85.76;97834.81;4963100;29;20035;-57
2021/12/03 03:37:05;;;;;;;17.48;11.38;;;;;;;2.65;85.11;97832.25;4961431;28;20279;-56
2021/12/03 03:39:51;;;;;;;15.10;10.35;;;;;;;2.72;85.38;97841.47;4960820;28;20055;-56
2021/12/03 03:42:38;;;;;;;15.27;10.45;;;;;;;2.62;85.59;97837.41;4961102;29;20036;-56
2021/12/03 03:45:24;;;;;;;16.38;11.13;;;;;;;2.65;85.89;97845.03;4947484;29;20058;-56
2021/12/03 03:48:11;;;;;;;18.42;11.65;;;;;;;2.69;85.82;97836.44;4961936;28;20031;-56
2021/12/03 03:50:57;;;;;;;14.50;11.20;;;;;;;2.64;86.20;97833.13;4961768;29;20035;-56
2021/12/03 03:53:43;;;;;;;17.95;11.38;;;;;;;2.52;86.20;97827.41;4961619;29;20027;-56
2021/12/03 03:56:30;;;;;;;17.10;11.45;;;;;;;2.54;85.88;97830.75;4962126;29;20086;-55
2021/12/03 03:59:17;;;;;;;16.73;11.85;;;;;;;2.38;85.99;97829.34;4962276;28;20042;-56
2021/12/03 04:02:03;;;;;;;15.40;11.90;;;;;;;2.53;85.55;97844.38;4944837;29;20070;-57
2021/12/03 04:04:49;;;;;;;18.23;11.90;;;;;;;2.57;86.12;97858.78;4961368;28;20035;-56
2021/12/03 04:07:37;;;;;;;16.42;11.50;;;;;;;2.50;85.99;97857.22;4947546;29;20196;-57
2021/12/03 04:10:23;;;;;;;18.92;11.60;;;;;;;2.54;85.62;97851.19;4960361;29;20031;-57
2021/12/03 04:13:09;;;;;;;15.60;11.80;;;;;;;2.55;85.12;97852.88;4946361;29;20328;-57
2021/12/03 04:15:55;;;;;;;15.43;11.60;;;;;;;2.61;85.55;97866.38;4961672;28;20216;-57
2021/12/03 04:18:41;;;;;;;14.45;10.77;;;;;;;2.55;85.19;97862.25;4962028;29;20022;-56
2021/12/03 04:21:27;;;;;;;14.77;11.57;;;;;;;2.62;85.03;97857.88;4960463;28;20027;-57
2021/12/03 04:24:14;;;;;;;14.75;11.20;;;;;;;2.69;84.83;97875.59;4961352;29;20224;-57
2021/12/03 04:26:59;;;;;;;18.90;11.25;;;;;;;2.71;84.97;97883.25;4961770;29;20220;-57
2021/12/03 04:29:46;;;;;;;14.23;11.77;;;;;;;2.54;84.58;97865.69;4961149;29;20019;-57
2021/12/03 04:32:33;;;;;;;17.85;11.35;;;;;;;2.66;84.47;97879.94;4960530;29;20086;-57
2021/12/03 04:35:19;;;;;;;15.85;11.10;;;;;;;2.72;83.69;97877.25;4962037;29;20039;-57
2021/12/03 04:38:05;;;;;;;15.13;10.52;;;;;;;2.69;83.58;97877.31;4962659;28;20034;-57
2021/12/03 04:40:51;;;;;;;14.38;11.68;;;;;;;2.65;83.79;97879.09;4961064;29;20054;-56
2021/12/03 04:43:38;;;;;;;16.98;11.07;;;;;;;2.69;83.55;97885.81;4961133;29;20146;-56
2021/12/03 04:46:23;;;;;;;15.77;10.75;;;;;;;2.74;83.11;97889.13;4953328;29;20260;-56
2021/12/03 04:49:09;;;;;;;17.02;10.60;;;;;;;2.69;83.38;97890.94;4960148;28;20031;-56
2021/12/03 04:51:56;;;;;;;14.30;10.68;;;;;;;2.74;83.06;97898.53;4926470;28;20047;-56
2021/12/03 04:54:42;;;;;;;14.05;10.30;;;;;;;2.69;83.22;97890.94;4955960;29;20030;-57
2021/12/03 04:57:28;;;;;;;13.52;10.55;;;;;;;2.70;83.50;97899.44;4952139;29;20036;-57
2021/12/03 05:00:18;;;;;;;14.25;10.73;;;;;;;2.48;83.14;97884.53;4944978;29;20088;-57
2021/12/03 05:03:04;;;;;;;15.50;11.32;;;;;;;2.61;82.97;97908.13;4955517;29;20114;-56
2021/12/03 05:05:58;;;;;;;14.15;10.25;;;;;;;2.62;83.52;97911.53;4957656;29;20212;-56
2021/12/03 05:08:43;;;;;;;15.98;11.38;;;;;;;2.64;83.59;97927.69;4954166;29;20033;-55
2021/12/03 05:11:29;;;;;;;14.40;11.27;;;;;;;2.51;83.55;97920.22;4947311;29;20298;-56
2021/12/03 05:14:15;;;;;;;16.63;11.93;;;;;;;2.56;83.75;97923.53;4957444;29;20320;-58
2021/12/03 05:17:01;;;;;;;18.98;11.00;;;;;;;2.63;83.78;97926.81;4959777;29;20531;-56
2021/12/03 05:19:48;;;;;;;18.90;12.00;;;;;;;2.66;83.58;97929.31;4959136;29;20119;-57
2021/12/03 05:22:33;;;;;;;14.40;11.05;;;;;;;2.56;83.92;97931.19;4960207;29;20220;-56
2021/12/03 05:25:21;;;;;;;15.68;11.50;;;;;;;2.57;83.74;97921.84;4960480;29;20217;-57
2021/12/03 05:28:07;;;;;;;16.02;11.50;;;;;;;2.62;83.29;97935.34;4961104;29;20035;-56
2021/12/03 05:30:53;;;;;;;17.50;11.50;;;;;;;2.59;83.42;97949.06;4959462;29;20351;-56
2021/12/03 05:33:39;;;;;;;18.58;11.82;;;;;;;2.70;83.89;97940.34;4960641;29;20310;-55
2021/12/03 05:36:25;;;;;;;14.27;11.43;;;;;;;2.66;83.69;97951.50;4960390;29;20359;-55
2021/12/03 05:39:12;;;;;;;15.52;10.75;;;;;;;2.73;83.38;97959.00;4960047;29;20038;-55
2021/12/03 05:41:58;;;;;;;17.17;12.43;;;;;;;2.64;83.68;97963.47;4944220;29;20541;-57
2021/12/03 05:44:44;;;;;;;14.68;11.35;;;;;;;2.61;83.28;97966.91;4944243;29;20071;-57
2021/12/03 05:47:30;;;;;;;15.38;10.95;;;;;;;2.61;83.30;97974.56;4944044;29;20035;-58
2021/12/03 05:50:16;;;;;;;15.70;11.57;;;;;;;2.63;83.70;97987.31;4944858;29;20038;-56
2021/12/03 05:53:03;;;;;;;16.05;11.68;;;;;;;2.71;83.46;97990.59;4948113;29;20053;-57
2021/12/03 05:55:49;;;;;;;15.05;10.88;;;;;;;2.72;82.38;97988.00;4958541;29;20283;-56
2021/12/03 05:58:35;;;;;;;14.02;10.90;;;;;;;2.65;82.82;97970.25;4960031;29;20332;-56
2021/12/03 06:01:20;;;;;;;14.18;10.82;;;;;;;2.64;83.18;97989.03;4960718;28;20276;-57
2021/12/03 06:04:06;;;;;;;15.82;10.68;;;;;;;2.65;82.88;97991.53;4962585;29;20046;-57
2021/12/03 06:06:52;;;;;;;13.88;10.23;;;;;;;2.76;83.12;97989.66;4960163;29;20241;-57
2021/12/03 06:09:38;;;;;;;13.93;10.57;;;;;;;2.78;82.70;97996.44;4951386;29;20035;-57
2021/12/03 06:12:24;;;;;;;11.95;10.60;;;;;;;2.79;82.46;97990.44;4962706;29;20082;-57
2021/12/03 06:15:11;;;;;;;18.20;11.48;;;;;;;2.84;82.28;98007.41;4964831;29;20034;-57
2021/12/03 06:17:57;;;;;;;13.70;11.57;;;;;;;2.67;82.56;97974.47;4963363;29;20092;-56
2021/12/03 06:20:43;;;;;;;17.45;11.73;;;;;;;2.80;82.51;98005.75;4959400;29;20071;-58
2021/12/03 06:23:29;;;;;;;13.15;11.00;;;;;;;2.72;83.07;98002.47;4954153;28;20031;-57
2021/12/03 06:26:15;;;;;;;15.70;11.15;;;;;;;2.78;82.74;98010.06;4954064;29;20035;-57
2021/12/03 06:29:03;;;;;;;19.50;11.57;;;;;;;2.76;82.34;97993.91;4955480;29;20217;-58
2021/12/03 06:31:49;;;;;;;15.07;11.13;;;;;;;2.74;82.05;97995.66;4955139;29;20217;-57
2021/12/03 06:34:36;;;;;;;14.80;12.05;;;;;;;2.90;82.69;98001.34;4961889;29;20317;-57
2021/12/03 06:37:22;;;;;;;14.48;11.02;;;;;;;2.79;82.05;97993.84;4962752;29;20067;-57
2021/12/03 06:40:12;;;;;;;14.35;10.80;;;;;;;2.68;82.28;97996.59;4953741;29;20083;-56
2021/12/03 06:42:58;;;;;;;21.27;11.57;;;;;;;2.87;82.81;98012.44;4949278;29;20316;-56
2021/12/03 06:45:44;;;;;;;16.95;11.32;;;;;;;2.80;82.36;98022.81;4958416;29;20112;-56
2021/12/03 06:48:30;;;;;;;14.95;11.02;;;;;;;2.79;83.08;98026.25;4962922;29;20224;-56
2021/12/03 06:51:16;;;;;;;14.98;10.50;;;;;;;2.83;82.96;98026.16;4961720;29;20035;-55
2021/12/03 06:54:04;;;;;;;13.95;10.13;;;;;;;2.87;82.36;98038.00;4961354;29;20042;-56
2021/12/03 06:56:52;;;;;;;14.68;11.20;;;;;;;2.78;83.53;98032.22;4962872;29;20046;-55
2021/12/03 06:59:38;;;;;;;14.55;10.95;;;;;;;2.59;83.11;97992.50;4962155;29;20134;-56
2021/12/03 07:02:24;;;;;;;15.57;11.05;;;;;;;2.86;82.67;98038.88;4958116;29;20085;-57
2021/12/03 07:05:10;;;;;;;12.25;10.32;;;;;;;2.76;81.86;98042.47;4961499;29;20347;-58
2021/12/03 07:07:56;;;;;;;18.80;11.45;;;;;;;2.89;81.93;98050.78;4962743;29;20217;-56
2021/12/03 07:10:42;;;;;;;15.48;11.15;;;;;;;2.90;81.61;98053.28;4959740;29;20027;-58
2021/12/03 07:13:30;;;;;;;13.82;10.68;;;;;;;2.83;81.22;98049.16;4963678;28;20027;-58
2021/12/03 07:16:16;;;;;;;14.90;10.80;;;;;;;2.98;81.68;98053.19;4961350;29;20027;-58
2021/12/03 07:19:04;;;;;;;12.75;10.18;;;;;;;2.87;80.98;98063.59;4962949;29;20212;-58
2021/12/03 07:21:49;;;;;;;17.00;10.68;;;;;;;2.88;80.13;98070.38;4962816;29;20122;-58
2021/12/03 07:24:35;;;;;;;14.80;10.57;;;;;;;2.91;80.70;98085.66;4962608;29;20029;-58
2021/12/03 07:27:23;;;;;;;13.25;9.48;;;;;;;2.95;81.24;98086.47;4960202;29;20046;-59
2021/12/03 07:30:11;;;;;;;12.27;9.18;;;;;;;2.78;80.05;98073.09;4960805;29;20056;-58
2021/12/03 07:32:57;;;;;;;13.65;9.00;;;;;;;2.94;80.53;98072.00;4963029;29;20042;-59
2021/12/03 07:35:45;;;;;;;12.20;9.10;;;;;;;2.99;80.93;98056.56;4958636;29;20023;-57
2021/12/03 07:38:31;;;;;;;22.85;9.73;;;;;;;3.00;80.14;98059.09;4959321;29;20035;-57
2021/12/03 07:41:17;;;;;;;13.45;10.07;;;;;;;3.10;80.39;98070.00;4962321;28;20061;-59
2021/12/03 07:44:03;;;;;;;11.88;9.52;;;;;;;3.08;79.54;98066.66;4947233;29;20328;-57
2021/12/03 07:46:49;;;;;;;15.27;10.48;;;;;;;3.11;80.82;98071.72;4961303;29;20047;-58
2021/12/03 07:49:36;;;;;;;15.52;9.65;;;;;;;3.01;80.70;98081.25;4961346;29;20085;-58
2021/12/03 07:52:22;;;;;;;15.70;10.40;;;;;;;3.01;80.21;98090.66;4962043;29;20086;-59
2021/12/03 07:55:09;;;;;;;13.88;9.70;;;;;;;2.98;80.54;98093.22;4959533;29;20031;-59
2021/12/03 07:57:55;;;;;;;13.18;9.60;;;;;;;3.00;80.59;98082.13;4960676;29;20019;-59
2021/12/03 08:00:43;;;;;;;12.85;9.57;;;;;;;3.06;80.92;98094.78;4959984;29;20023;-58
2021/12/03 08:03:29;;;;;;;16.45;10.90;;;;;;;2.96;81.07;98100.94;4959854;29;20311;-59
2021/12/03 08:06:15;;;;;;;17.67;10.80;;;;;;;3.06;81.21;98101.63;4958024;29;20031;-58
2021/12/03 08:09:00;;;;;;;13.43;10.63;;;;;;;3.08;80.90;98094.78;4959311;29;20110;-58
2021/12/03 08:11:46;;;;;;;19.40;11.60;;;;;;;3.07;81.37;98099.03;4960375;29;20086;-58
2021/12/03 08:14:32;;;;;;;16.27;10.65;;;;;;;3.00;80.81;98111.97;4956045;29;20050;-57
2021/12/03 08:17:18;;;;;;;14.07;10.93;;;;;;;3.16;80.78;98123.59;4955345;29;20117;-57
2021/12/03 08:20:06;;;;;;;12.52;10.50;;;;;;;3.11;80.32;98144.16;4957233;29;20042;-57
2021/12/03 08:22:52;;;;;;;14.57;11.02;;;;;;;3.18;80.71;98116.78;4957427;29;20099;-57
2021/12/03 08:25:38;;;;;;;15.75;10.43;;;;;;;3.19;80.11;98115.91;4957157;29;20651;-57
2021/12/03 08:28:24;;;;;;;14.63;10.48;;;;;;;3.13;79.21;98105.75;4957343;29;20069;-58
2021/12/03 08:31:14;;;;;;;14.85;10.80;;;;;;;3.20;79.62;98098.84;4958560;29;20043;-57
2021/12/03 08:34:00;;;;;;;16.98;11.13;;;;;;;3.28;79.47;98090.16;4946190;29;20102;-58
2021/12/03 08:36:46;;;;;;;16.38;11.07;;;;;;;3.40;78.92;98109.53;4944450;29;20032;-57
2021/12/03 08:39:32;;;;;;;14.40;10.93;;;;;;;3.48;79.48;98106.84;4958817;29;20050;-58
2021/12/03 08:42:18;;;;;;;12.93;10.27;;;;;;;3.49;78.24;98110.25;4957351;29;20118;-57
2021/12/03 08:45:05;;;;;;;12.77;9.77;;;;;;;3.55;78.25;98112.69;4958383;29;20061;-57
2021/12/03 08:47:54;;;;;;;12.93;9.95;;;;;;;3.64;79.15;98120.22;4959862;29;20098;-58
2021/12/03 08:50:50;;;;;;;15.55;10.85;;;;;;;3.67;78.80;98104.78;4961827;28;20026;-59
2021/12/03 08:56:41;;;;;;;15.98;10.23;;;;;;;3.70;77.67;98107.28;4957219;29;20023;-56
2021/12/03 08:59:26;;;;;;;13.63;10.93;;;;;;;3.75;78.14;98109.78;4958278;29;20031;-56
2021/12/03 09:02:12;;;;;;;14.10;10.32;;;;;;;3.63;77.39;98121.94;4958026;29;20086;-57
2021/12/03 09:04:58;;;;;;;15.27;10.30;;;;;;;3.65;76.96;98123.59;4954795;29;20042;-57
2021/12/03 09:07:44;;;;;;;13.65;10.40;;;;;;;3.53;76.85;98117.84;4945924;29;20403;-57
2021/12/03 09:10:30;;;;;;;13.52;9.95;;;;;;;3.62;77.29;98112.56;4958085;29;20019;-57
2021/12/03 09:13:16;;;;;;;13.40;10.85;;;;;;;3.69;77.36;98110.75;4959347;29;20212;-57
2021/12/03 09:16:10;;;;;;;19.77;10.48;;;;;;;3.59;77.57;98112.63;4953779;29;20023;-57
2021/12/03 09:18:57;;;;;;;13.38;10.05;;;;;;;3.55;77.00;98118.66;4958409;29;20223;-57
2021/12/03 09:21:43;;;;;;;15.43;10.15;;;;;;;3.59;76.69;98127.97;4957650;29;20034;-56
2021/12/03 09:24:32;;;;;;;14.55;10.00;;;;;;;3.63;77.46;98128.75;4956403;29;20038;-56
2021/12/03 09:27:20;;;;;;;16.55;9.93;;;;;;;3.57;76.25;98147.63;4955525;29;20046;-57
2021/12/03 09:30:08;;;;;;;14.13;9.38;;;;;;;3.47;76.04;98130.75;4956169;29;20035;-57
2021/12/03 09:32:57;;;;;;;13.55;9.30;;;;;;;3.48;76.10;98132.44;4959499;29;20023;-57
2021/12/03 09:35:48;;;;;;;12.10;9.52;;;;;;;3.38;76.39;98124.09;4956541;28;20035;-57
2021/12/03 09:38:35;;;;;;;16.73;9.73;;;;;;;3.58;76.44;98128.84;4963127;29;20027;-56
2021/12/03 09:41:21;;;;;;;15.77;9.73;;;;;;;3.45;76.12;98128.22;4962358;29;20390;-56
2021/12/03 09:44:08;;;;;;;12.45;8.93;;;;;;;3.33;75.72;98123.31;4956612;29;20433;-57
2021/12/03 09:46:54;;;;;;;14.43;8.52;;;;;;;3.31;75.14;98119.09;4960965;29;20034;-57
2021/12/03 09:49:41;;;;;;;13.50;8.52;;;;;;;3.40;76.51;98118.94;4962870;29;20035;-57
2021/12/03 09:55:14;;;;;;;12.40;8.32;;;;;;;3.51;76.79;98126.44;4962812;29;20027;-57
2021/12/03 09:58:19;;;;;;;11.77;8.95;;;;;;;3.51;76.39;98121.31;4964227;29;20031;-58
2021/12/03 10:01:20;;;;;;;13.90;8.52;;;;;;;3.31;76.29;98142.13;4948283;29;20028;-58
2021/12/03 10:12:56;;;;;;;15.80;8.80;;;;;;;3.33;77.07;98138.66;4961824;29;20035;-57
2021/12/03 10:15:59;;;;;;;11.38;9.07;;;;;;;3.05;76.55;98107.59;4957335;29;20028;-58
2021/12/03 10:49:42;;;;;;;11.57;9.80;;;;;;;3.39;77.33;98133.47;4963851;29;20034;-57
2021/12/03 10:53:10;;;;;;;11.75;8.75;;;;;;;3.34;77.51;98142.91;4948794;29;20039;-57
2021/12/03 10:59:17;;;;;;;11.52;8.25;;;;;;;3.27;76.31;98131.94;4962727;29;20287;-56
2021/12/03 11:12:26;;;;;;;10.45;7.75;;;;;;;3.25;77.72;98131.13;4958468;29;20087;-58
2021/12/03 11:15:47;;;;;;;11.80;8.55;;;;;;;3.21;76.64;98139.72;4958894;29;20035;-57
2021/12/03 13:01:29;;;;;;;14.50;9.77;;;;;;;2.96;78.86;98105.22;4953816;29;20351;-58
2021/12/03 13:23:20;;;;;;;17.17;10.90;;;;;;;3.23;78.50;98080.88;4956840;29;20105;-59
2021/12/03 14:43:26;;;;;;;19.67;13.55;;;;;;;2.60;85.36;98064.88;4961617;29;20038;-57
2021/12/03 14:46:30;;;;;;;22.77;15.05;;;;;;;2.63;85.58;98069.09;4961110;28;20327;-58
2021/12/03 14:52:24;;;;;;;20.95;14.38;;;;;;;2.56;86.45;98064.06;4960185;29;20123;-57
2021/12/03 14:55:10;;;;;;;21.75;15.23;;;;;;;2.48;86.50;98055.69;4960292;29;20035;-58
2021/12/03 14:58:07;;;;;;;23.30;15.95;;;;;;;2.47;87.42;98053.16;4963230;29;20034;-58
2021/12/03 15:07:23;;;;;;;22.45;16.65;;;;;;;2.69;86.41;98046.00;4957607;29;20120;-58
2021/12/03 15:10:15;;;;;;;23.98;17.10;;;;;;;2.63;86.59;98046.09;4953714;29;20035;-58
2021/12/03 15:14:09;;;;;;;27.77;18.58;;;;;;;2.56;87.31;98033.41;4963508;29;20332;-58
2021/12/03 15:22:36;;;;;;;20.60;16.15;;;;;;;2.73;86.65;98034.84;4962563;29;20042;-58
2021/12/03 15:34:45;;;;;;;22.80;15.70;;;;;;;2.62;86.67;98029.06;4959772;28;20070;-58
2021/12/03 15:53:15;;;;;;;34.33;23.05;;;;;;;2.55;87.51;98011.28;4962222;29;20047;-57
2021/12/03 16:04:46;;;;;;;24.00;18.40;;;;;;;2.64;87.29;98005.19;4960383;28;20217;-57
2021/12/03 16:10:46;;;;;;;25.10;18.02;;;;;;;2.34;87.41;97958.00;4953703;29;20036;-58
2021/12/03 16:17:01;;;;;;;23.75;17.08;;;;;;;2.59;87.72;97992.50;4945882;29;20043;-58
2021/12/03 16:23:08;;;;;;;30.33;19.35;;;;;;;2.65;87.44;97983.88;4962662;29;20595;-56
2021/12/03 16:53:03;;;;;;;23.63;16.73;;;;;;;2.55;87.79;97937.19;4956088;28;20428;-58
2021/12/03 16:56:11;;;;;;;20.02;15.80;;;;;;;2.57;87.89;97935.44;4957354;29;20019;-59
2021/12/03 16:58:58;;;;;;;22.95;17.42;;;;;;;2.52;87.22;97921.06;4958112;29;20519;-59
2021/12/03 17:05:04;;;;;;;28.05;20.52;;;;;;;2.46;87.77;97944.19;4952930;28;20209;-60
2021/12/03 17:22:44;;;;;;;19.52;16.05;;;;;;;2.63;87.64;97921.72;4956042;29;20028;-60
2021/12/03 17:28:50;;;;;;;21.42;17.05;;;;;;;2.59;87.67;97914.97;4961972;29;20027;-62
2021/12/03 17:31:56;;;;;;;20.95;15.90;;;;;;;2.67;87.64;97912.28;4960765;29;20340;-61
2021/12/03 18:01:13;;;;;;;19.60;15.73;;;;;;;2.67;87.29;97904.63;4966178;28;20087;-60
2021/12/03 18:46:16;;;;;;;19.40;13.50;;;;;;;2.52;87.88;97909.16;4959696;29;20183;-61
2021/12/03 18:52:16;;;;;;;18.00;13.35;;;;;;;2.50;87.68;97917.72;4953570;28;20028;-61
2021/12/03 18:55:09;;;;;;;18.15;11.60;;;;;;;2.51;87.41;97912.56;4952456;28;20276;-61
2021/12/03 18:58:00;;;;;;;18.33;12.15;;;;;;;2.53;87.53;97907.44;4963260;28;20066;-61
2021/12/03 19:00:46;;;;;;;15.27;11.20;;;;;;;2.56;87.45;97932.91;4957900;28;20220;-59
2021/12/03 19:04:19;;;;;;;13.77;10.75;;;;;;;2.44;87.33;97926.31;4962122;28;20043;-60
2021/12/03 19:07:08;;;;;;;14.07;10.05;;;;;;;2.40;87.48;97919.56;4950057;28;20031;-59
2021/12/03 19:09:56;;;;;;;14.23;10.02;;;;;;;2.46;87.67;97937.34;4951355;28;20046;-59
2021/12/03 19:12:45;;;;;;;12.05;9.00;;;;;;;2.48;87.02;97940.72;4956101;28;20343;-58
2021/12/03 19:15:33;;;;;;;11.57;8.70;;;;;;;2.50;87.14;97933.88;4938599;29;20031;-59
2021/12/03 19:18:22;;;;;;;10.65;8.32;;;;;;;2.46;86.58;97934.78;4961444;29;20142;-59
2021/12/03 19:21:11;;;;;;;12.07;8.10;;;;;;;2.34;86.85;97935.00;4963629;29;20256;-58
2021/12/03 19:24:01;;;;;;;12.95;8.23;;;;;;;2.07;86.90;97886.09;4953977;29;20253;-59
2021/12/03 19:26:47;;;;;;;9.73;7.68;;;;;;;2.31;87.07;97917.16;4956667;28;20327;-59
2021/12/03 19:29:33;;;;;;;9.23;8.13;;;;;;;2.53;86.54;97941.47;4959773;29;20038;-58
2021/12/03 19:32:19;;;;;;;11.57;8.43;;;;;;;2.40;87.24;97938.28;4958980;29;20027;-59
2021/12/03 19:35:06;;;;;;;9.63;7.18;;;;;;;2.27;86.39;97934.25;4960505;29;20042;-58
2021/12/03 19:37:54;;;;;;;9.57;6.72;;;;;;;2.16;87.19;97926.78;4955849;28;20032;-58
2021/12/03 19:40:49;;;;;;;6.68;5.93;;;;;;;2.33;87.07;97918.00;4958494;29;20047;-59
2021/12/03 19:43:42;;;;;;;7.85;6.68;;;;;;;2.34;86.29;97924.81;4961964;29;20069;-59
2021/12/03 19:46:35;;;;;;;8.32;6.15;;;;;;;2.28;86.25;97925.75;4949470;29;20561;-59
2021/12/03 19:49:33;;;;;;;7.63;6.07;;;;;;;2.04;85.93;97911.66;4961120;29;20343;-58
2021/12/03 19:55:11;;;;;;;6.10;5.47;;;;;;;2.30;85.86;97934.22;4959872;28;20032;-57
2021/12/03 19:57:57;;;;;;;7.40;5.68;;;;;;;2.26;85.71;97932.56;4961524;29;20082;-57
2021/12/03 20:00:46;;;;;;;8.40;5.65;;;;;;;2.18;86.20;97939.50;4964092;28;20023;-58
2021/12/03 20:03:32;;;;;;;7.15;6.18;;;;;;;2.00;86.36;97944.03;4960351;28;20074;-58
2021/12/03 20:06:18;;;;;;;6.72;5.82;;;;;;;2.09;86.27;97945.59;4959876;28;20046;-57
2021/12/03 20:09:06;;;;;;;7.22;5.80;;;;;;;2.11;85.60;97943.91;4958514;29;20039;-57
2021/12/03 20:11:56;;;;;;;7.05;5.25;;;;;;;2.10;85.35;97938.81;4953112;29;20039;-58
2021/12/03 20:14:44;;;;;;;6.35;5.70;;;;;;;2.12;85.61;97940.44;4960687;29;20047;-58
2021/12/03 20:17:36;;;;;;;7.10;5.95;;;;;;;2.18;85.75;97942.94;4958254;29;20082;-58
2021/12/03 20:20:23;;;;;;;;;;;;;;;2.11;84.98;97943.91;4958535;28;20106;-58
2021/12/03 20:23:28;;;;;;;7.78;5.68;;;;;;;2.10;84.51;97947.31;4958685;29;19922;-58
2021/12/03 20:32:09;;;;;;;7.10;6.13;;;;;;;2.17;84.23;97948.91;4958358;29;20038;-59